createdAt,value
2018-07-15T00:02:12.075Z,2.83
2018-07-15T00:05:15.704Z,2.60
2018-07-15T00:08:19.310Z,2.60
2018-07-15T00:11:22.939Z,2.80
2018-07-15T00:14:26.595Z,2.60
2018-07-15T00:17:30.029Z,2.60
2018-07-15T00:20:33.556Z,3.30
2018-07-15T00:23:37.178Z,5.10
2018-07-15T00:26:40.786Z,2.93
2018-07-15T00:29:44.420Z,5.57
2018-07-15T00:32:48.035Z,2.70
2018-07-15T00:35:51.667Z,3.03
2018-07-15T00:38:55.276Z,2.90
2018-07-15T00:41:58.911Z,4.63
2018-07-15T00:45:02.544Z,2.90
2018-07-15T00:48:06.191Z,3.50
2018-07-15T00:51:09.819Z,3.00
2018-07-15T00:54:13.253Z,2.67
2018-07-15T00:57:16.809Z,3.20
2018-07-15T01:00:25.824Z,3.00
2018-07-15T01:03:29.906Z,2.80
2018-07-15T01:06:33.564Z,2.83
2018-07-15T01:09:37.175Z,3.27
2018-07-15T01:12:40.819Z,3.90
2018-07-15T01:15:44.436Z,4.80
2018-07-15T01:18:48.105Z,3.30
2018-07-15T01:21:51.783Z,2.50
2018-07-15T01:24:55.450Z,2.73
2018-07-15T01:27:59.199Z,2.67
2018-07-15T01:31:02.626Z,4.03
2018-07-15T01:34:06.354Z,3.10
2018-07-15T01:37:10.001Z,5.80
2018-07-15T01:40:13.640Z,3.93
2018-07-15T01:43:17.238Z,3.40
2018-07-15T01:46:20.891Z,4.03
2018-07-15T01:49:24.473Z,4.40
2018-07-15T01:52:28.110Z,3.77
2018-07-15T01:55:31.713Z,3.90
2018-07-15T01:58:35.576Z,4.00
2018-07-15T02:01:39.188Z,3.80
2018-07-15T02:04:49.379Z,3.80
2018-07-15T02:07:52.990Z,3.60
2018-07-15T02:10:56.609Z,4.10
2018-07-15T02:14:00.628Z,5.90
2018-07-15T02:17:04.246Z,5.40
2018-07-15T02:20:07.860Z,4.07
2018-07-15T02:23:11.517Z,4.27
2018-07-15T02:26:15.139Z,4.03
2018-07-15T02:29:18.817Z,3.80
2018-07-15T02:32:22.438Z,3.83
2018-07-15T02:35:26.071Z,3.40
2018-07-15T02:38:29.672Z,3.67
2018-07-15T02:41:33.312Z,3.80
2018-07-15T02:44:36.728Z,3.03
2018-07-15T02:47:40.261Z,3.40
2018-07-15T02:50:43.863Z,3.40
2018-07-15T02:53:47.496Z,3.20
2018-07-15T02:56:50.920Z,3.33
2018-07-15T02:59:54.462Z,3.17
2018-07-15T03:02:58.924Z,3.30
2018-07-15T03:06:02.635Z,3.07
2018-07-15T03:09:08.116Z,3.13
2018-07-15T03:12:11.740Z,3.00
2018-07-15T03:15:15.469Z,3.30
2018-07-15T03:18:19.097Z,3.00
2018-07-15T03:21:22.719Z,3.20
2018-07-15T03:24:26.342Z,3.33
2018-07-15T03:27:29.955Z,2.93
2018-07-15T03:30:33.812Z,2.90
2018-07-15T03:33:37.414Z,2.80
2018-07-15T03:36:41.046Z,2.53
2018-07-15T03:39:44.689Z,3.07
2018-07-15T03:42:48.327Z,2.70
2018-07-15T03:45:51.929Z,2.50
2018-07-15T03:48:55.554Z,2.87
2018-07-15T03:51:59.162Z,2.90
2018-07-15T03:55:02.839Z,2.80
2018-07-15T03:58:06.464Z,2.83
2018-07-15T04:01:10.090Z,2.53
2018-07-15T04:04:13.692Z,2.80
2018-07-15T04:07:17.331Z,2.77
2018-07-15T04:10:20.928Z,3.47
2018-07-15T04:13:24.566Z,3.07
2018-07-15T04:16:28.171Z,2.90
2018-07-15T04:19:31.795Z,2.90
2018-07-15T04:22:35.435Z,2.60
2018-07-15T04:25:38.893Z,2.67
2018-07-15T04:28:42.429Z,2.80
2018-07-15T04:31:46.037Z,2.33
2018-07-15T04:34:49.488Z,2.70
2018-07-15T04:37:53.024Z,2.10
2018-07-15T04:40:56.646Z,3.80
2018-07-15T04:44:00.255Z,3.22
2018-07-15T04:47:03.899Z,2.47
2018-07-15T04:50:07.498Z,3.37
2018-07-15T04:53:11.145Z,3.00
2018-07-15T04:56:14.753Z,2.30
2018-07-15T04:59:18.383Z,2.55
2018-07-15T05:02:21.983Z,2.62
2018-07-15T05:05:25.640Z,2.95
2018-07-15T05:08:30.090Z,1.80
2018-07-15T05:11:33.815Z,2.22
2018-07-15T05:14:37.451Z,1.90
2018-07-15T05:17:41.070Z,2.10
2018-07-15T05:20:44.679Z,1.47
2018-07-15T05:23:48.123Z,1.90
2018-07-15T05:26:51.645Z,1.90
2018-07-15T05:29:55.253Z,1.70
2018-07-15T05:32:58.874Z,2.60
2018-07-15T05:36:02.298Z,4.10
2018-07-15T05:39:05.868Z,2.30
2018-07-15T05:42:09.481Z,2.75
2018-07-15T05:45:12.927Z,2.20
2018-07-15T05:48:16.450Z,1.90
2018-07-15T05:51:20.117Z,1.70
2018-07-15T05:54:23.738Z,2.15
2018-07-15T05:57:27.365Z,1.57
2018-07-15T06:00:31.647Z,2.20
2018-07-15T06:03:35.336Z,1.98
2018-07-15T06:06:38.915Z,1.90
2018-07-15T06:09:42.360Z,1.82
2018-07-15T06:12:45.868Z,1.60
2018-07-15T06:15:49.521Z,1.98
2018-07-15T06:18:53.661Z,1.85
2018-07-15T06:21:57.295Z,1.95
2018-07-15T06:25:00.895Z,1.60
2018-07-15T06:28:04.548Z,1.57
2018-07-15T06:31:08.172Z,1.52
2018-07-15T06:34:11.845Z,1.70
2018-07-15T06:37:15.259Z,1.75
2018-07-15T06:40:18.824Z,1.75
2018-07-15T06:43:22.436Z,1.85
2018-07-15T06:46:31.515Z,2.00
2018-07-15T06:49:35.114Z,1.60
2018-07-15T06:52:38.978Z,1.70
2018-07-15T06:55:42.597Z,1.82
2018-07-15T06:58:46.230Z,1.90
2018-07-15T07:01:50.037Z,1.70
2018-07-15T07:04:53.655Z,1.87
2018-07-15T07:07:57.268Z,1.82
2018-07-15T07:11:00.901Z,1.75
2018-07-15T07:14:04.831Z,1.70
2018-07-15T07:17:08.458Z,1.50
2018-07-15T07:20:12.103Z,1.45
2018-07-15T07:23:15.711Z,1.40
2018-07-15T07:26:19.143Z,1.55
2018-07-15T07:29:22.703Z,1.75
2018-07-15T07:32:26.133Z,2.52
2018-07-15T07:35:29.754Z,1.70
2018-07-15T07:38:33.291Z,1.57
2018-07-15T07:41:36.952Z,1.70
2018-07-15T07:44:40.589Z,1.85
2018-07-15T07:47:44.221Z,1.75
2018-07-15T07:50:47.830Z,1.45
2018-07-15T07:53:51.469Z,1.50
2018-07-15T07:56:55.078Z,1.72
2018-07-15T07:59:58.722Z,1.70
2018-07-15T08:03:02.215Z,1.98
2018-07-15T08:06:05.576Z,1.50
2018-07-15T08:09:09.093Z,1.55
2018-07-15T08:12:12.728Z,1.70
2018-07-15T08:15:16.421Z,1.62
2018-07-15T08:18:20.044Z,2.33
2018-07-15T08:21:23.667Z,1.50
2018-07-15T08:24:27.297Z,1.65
2018-07-15T08:27:30.910Z,2.12
2018-07-15T08:31:17.816Z,1.75
2018-07-15T08:34:21.550Z,2.17
2018-07-15T08:37:25.137Z,1.90
2018-07-15T08:40:28.777Z,2.87
2018-07-15T08:43:32.389Z,2.22
2018-07-15T08:46:36.018Z,1.80
2018-07-15T08:49:39.639Z,1.60
2018-07-15T08:52:43.276Z,2.10
2018-07-15T08:55:46.882Z,1.90
2018-07-15T08:58:50.802Z,4.83
2018-07-15T09:01:54.475Z,2.75
2018-07-15T09:04:58.118Z,1.50
2018-07-15T09:08:01.755Z,1.55
2018-07-15T09:11:05.381Z,2.10
2018-07-15T09:14:08.993Z,2.22
2018-07-15T09:17:12.743Z,1.60
2018-07-15T09:20:16.352Z,1.82
2018-07-15T09:23:20.002Z,1.87
2018-07-15T09:26:23.638Z,1.70
2018-07-15T09:29:27.276Z,2.10
2018-07-15T09:32:30.896Z,1.90
2018-07-15T09:35:34.483Z,1.75
2018-07-15T09:38:37.929Z,2.10
2018-07-15T09:41:41.570Z,1.65
2018-07-15T09:44:45.202Z,2.00
2018-07-15T09:47:48.651Z,2.05
2018-07-15T09:50:52.186Z,1.60
2018-07-15T09:53:55.827Z,1.70
2018-07-15T09:56:59.451Z,1.90
2018-07-15T10:00:03.098Z,1.80
2018-07-15T10:03:06.700Z,1.70
2018-07-15T10:06:10.417Z,1.60
2018-07-15T10:09:14.031Z,1.90
2018-07-15T10:12:17.671Z,1.82
2018-07-15T10:15:21.314Z,1.67
2018-07-15T10:18:24.766Z,1.70
2018-07-15T10:21:28.277Z,2.05
2018-07-15T10:24:31.922Z,1.95
2018-07-15T10:29:04.712Z,1.95
2018-07-15T10:32:08.267Z,1.82
2018-07-15T10:35:11.878Z,2.40
2018-07-15T10:38:15.497Z,2.00
2018-07-15T10:41:19.120Z,4.03
2018-07-15T10:44:22.565Z,2.10
2018-07-15T10:47:26.092Z,2.10
2018-07-15T10:50:29.718Z,2.40
2018-07-15T10:53:33.349Z,2.37
2018-07-15T10:56:36.991Z,2.40
2018-07-15T10:59:40.606Z,2.30
2018-07-15T11:02:44.330Z,2.10
2018-07-15T11:05:47.932Z,2.25
2018-07-15T11:08:51.446Z,3.10
2018-07-15T11:11:54.917Z,3.40
2018-07-15T11:14:58.634Z,3.72
2018-07-15T11:18:02.151Z,3.35
2018-07-15T11:21:05.852Z,1.95
2018-07-15T11:28:24.924Z,1.85
2018-07-15T11:31:28.648Z,2.70
2018-07-15T11:34:33.054Z,2.20
2018-07-15T11:37:36.478Z,2.05
2018-07-15T11:40:40.103Z,2.17
2018-07-15T11:43:43.751Z,2.37
2018-07-15T11:46:47.558Z,2.52
2018-07-15T11:49:51.264Z,2.60
2018-07-15T11:52:54.887Z,3.40
2018-07-15T11:55:58.506Z,2.30
2018-07-15T11:59:02.130Z,1.98
2018-07-15T12:02:05.811Z,2.70
2018-07-15T12:05:09.502Z,2.65
2018-07-15T12:08:13.200Z,2.40
2018-07-15T12:11:16.759Z,2.50
2018-07-15T12:14:20.613Z,2.25
2018-07-15T12:17:24.263Z,2.15
2018-07-15T12:20:27.935Z,2.00
2018-07-15T12:23:31.686Z,2.33
2018-07-15T12:26:35.405Z,5.00
2018-07-15T12:29:39.024Z,2.33
2018-07-15T12:32:42.703Z,2.95
2018-07-15T12:35:46.128Z,5.40
2018-07-15T12:38:49.685Z,4.72
2018-07-15T12:41:53.322Z,2.55
2018-07-15T12:44:56.974Z,2.55
2018-07-15T12:48:00.582Z,2.37
2018-07-15T12:51:04.318Z,2.30
2018-07-15T12:54:07.922Z,2.67
2018-07-15T12:57:11.445Z,4.37
2018-07-15T13:00:15.794Z,2.92
2018-07-15T13:03:19.448Z,1.82
2018-07-15T13:06:22.897Z,2.40
2018-07-15T13:09:26.426Z,2.35
2018-07-15T13:12:30.453Z,2.10
2018-07-15T13:15:34.094Z,2.08
2018-07-15T13:18:37.726Z,2.20
2018-07-15T13:21:41.346Z,2.37
2018-07-15T13:24:45.063Z,2.08
2018-07-15T13:27:48.775Z,2.17
2018-07-15T13:30:52.472Z,2.40
2018-07-15T13:33:56.048Z,2.30
2018-07-15T13:36:59.690Z,2.25
2018-07-15T13:40:03.333Z,2.30
2018-07-15T13:43:06.983Z,2.10
2018-07-15T13:46:10.479Z,2.10
2018-07-15T13:49:13.996Z,2.12
2018-07-15T13:52:17.682Z,2.22
2018-07-15T13:55:21.368Z,2.40
2018-07-15T13:58:24.965Z,2.02
2018-07-15T14:01:28.809Z,2.12
2018-07-15T14:04:32.423Z,2.30
2018-07-15T14:07:36.053Z,2.85
2018-07-15T14:10:39.728Z,2.60
2018-07-15T14:13:43.141Z,2.20
2018-07-15T14:16:46.682Z,2.30
2018-07-15T14:19:50.330Z,2.05
2018-07-15T14:22:53.960Z,2.20
2018-07-15T14:25:57.648Z,2.40
2018-07-15T14:29:01.263Z,8.83
2018-07-15T14:32:04.914Z,3.33
2018-07-15T14:35:08.508Z,2.50
2018-07-15T14:38:12.322Z,2.70
2018-07-15T14:41:15.908Z,2.47
2018-07-15T14:44:19.522Z,2.45
2018-07-15T14:47:23.117Z,2.30
2018-07-15T14:50:26.629Z,2.80
2018-07-15T14:53:30.140Z,2.10
2018-07-15T14:56:33.854Z,3.08
2018-07-15T14:59:37.533Z,3.20
2018-07-15T15:02:41.146Z,2.30
2018-07-15T15:05:44.840Z,2.50
2018-07-15T15:08:48.544Z,4.55
2018-07-15T15:11:52.225Z,3.42
2018-07-15T15:14:55.847Z,2.80
2018-07-15T15:17:59.337Z,2.90
2018-07-15T15:21:02.662Z,2.15
2018-07-15T15:24:06.567Z,2.30
2018-07-15T15:27:10.170Z,2.35
2018-07-15T15:30:13.994Z,2.25
2018-07-15T15:33:17.613Z,2.33
2018-07-15T15:36:21.249Z,2.20
2018-07-15T15:39:24.859Z,2.60
2018-07-15T15:42:28.675Z,2.37
2018-07-15T15:45:32.177Z,2.22
2018-07-15T15:48:35.839Z,2.20
2018-07-15T15:51:39.429Z,2.35
2018-07-15T15:54:43.082Z,2.00
2018-07-15T15:57:46.501Z,2.20
2018-07-15T16:00:50.038Z,2.02
2018-07-15T16:03:53.670Z,2.00
2018-07-15T16:06:57.431Z,2.00
2018-07-15T16:10:01.015Z,1.90
2018-07-15T16:13:04.769Z,1.95
2018-07-15T16:16:08.994Z,2.15
2018-07-15T16:19:12.590Z,2.25
2018-07-15T16:22:16.217Z,1.98
2018-07-15T16:25:19.634Z,2.12
2018-07-15T16:28:23.186Z,2.00
2018-07-15T16:31:26.797Z,1.90
2018-07-15T16:37:57.373Z,1.90
2018-07-15T16:41:00.991Z,1.87
2018-07-15T16:44:04.938Z,1.90
2018-07-15T16:47:08.548Z,1.90
2018-07-15T16:50:12.204Z,1.98
2018-07-15T16:53:15.822Z,2.20
2018-07-15T16:56:19.557Z,2.10
2018-07-15T16:59:23.065Z,1.95
2018-07-15T17:02:26.788Z,2.00
2018-07-15T17:05:30.388Z,2.30
2018-07-15T17:08:34.014Z,2.00
2018-07-15T17:11:37.631Z,2.77
2018-07-15T17:14:41.542Z,1.60
2018-07-15T17:17:45.980Z,2.00
2018-07-15T17:20:49.598Z,1.70
2018-07-15T17:23:53.227Z,1.77
2018-07-15T17:26:56.681Z,2.12
2018-07-15T17:30:00.223Z,1.70
2018-07-15T17:33:03.947Z,2.08
2018-07-15T17:36:07.571Z,1.90
2018-07-15T17:39:11.214Z,1.98
2018-07-15T17:42:14.835Z,2.20
2018-07-15T17:45:18.310Z,2.10
2018-07-15T17:48:21.941Z,1.75
2018-07-15T17:51:25.676Z,1.90
2018-07-15T17:54:29.283Z,2.22
2018-07-15T17:57:32.934Z,2.00
2018-07-15T18:00:36.654Z,1.82
2018-07-15T18:03:40.334Z,1.75
2018-07-15T18:06:43.961Z,2.50
2018-07-15T18:09:47.548Z,2.37
2018-07-15T18:12:50.890Z,1.92
2018-07-15T18:15:54.498Z,2.15
2018-07-15T18:18:58.117Z,1.92
2018-07-15T18:22:01.789Z,1.92
2018-07-15T18:25:05.366Z,2.05
2018-07-15T18:28:08.837Z,2.42
2018-07-15T18:31:12.193Z,2.55
2018-07-15T18:34:15.787Z,2.02
2018-07-15T18:37:19.448Z,2.17
2018-07-15T18:40:23.055Z,2.90
2018-07-15T18:43:26.736Z,2.50
2018-07-15T18:46:30.341Z,2.20
2018-07-15T18:49:33.915Z,3.22
2018-07-15T18:52:37.575Z,2.65
2018-07-15T18:55:41.189Z,2.67
2018-07-15T18:58:44.827Z,2.45
2018-07-15T19:01:48.622Z,3.27
2018-07-15T19:04:52.242Z,2.58
2018-07-15T19:07:55.950Z,2.75
2018-07-15T19:10:59.598Z,2.92
2018-07-15T19:14:03.552Z,2.87
2018-07-15T19:17:08.326Z,3.10
2018-07-15T19:20:11.973Z,3.10
2018-07-15T19:23:15.740Z,6.05
2018-07-15T19:26:19.363Z,3.52
2018-07-15T19:29:22.994Z,2.87
2018-07-15T19:32:26.643Z,3.12
2018-07-15T19:35:30.353Z,2.75
2018-07-15T19:38:33.982Z,3.02
2018-07-15T19:41:37.607Z,3.02
2018-07-15T19:44:41.262Z,11.48
2018-07-15T19:47:44.902Z,7.20
2018-07-15T19:50:49.047Z,4.50
2018-07-15T19:53:52.750Z,4.97
2018-07-15T19:56:56.507Z,7.05
2018-07-15T20:00:00.191Z,5.10
2018-07-15T20:03:03.833Z,5.30
2018-07-15T20:06:07.488Z,23.67
2018-07-15T20:09:11.091Z,15.10
2018-07-15T20:12:14.583Z,8.30
2018-07-15T20:15:18.087Z,8.60
2018-07-15T20:18:21.429Z,9.10
2018-07-15T20:21:25.054Z,18.40
2018-07-15T20:24:28.679Z,12.30
2018-07-15T20:27:32.502Z,26.30
2018-07-15T20:30:36.124Z,11.13
2018-07-15T20:33:39.761Z,8.57
2018-07-15T20:36:43.371Z,9.90
2018-07-15T20:39:47.838Z,16.70
2018-07-15T20:42:51.454Z,18.00
2018-07-15T20:45:55.082Z,19.73
2018-07-15T20:48:58.721Z,12.83
2018-07-15T20:52:02.205Z,12.57
2018-07-15T20:55:05.742Z,14.17
2018-07-15T20:59:12.839Z,15.93
2018-07-15T21:02:16.523Z,15.13
2018-07-15T21:05:20.133Z,13.53
2018-07-15T21:08:23.829Z,11.57
2018-07-15T21:11:27.469Z,18.47
2018-07-15T21:14:31.094Z,16.30
2018-07-15T21:17:34.809Z,13.90
2018-07-15T21:20:38.550Z,16.90
2018-07-15T21:23:42.176Z,14.67
2018-07-15T21:26:45.795Z,12.10
2018-07-15T21:29:49.425Z,8.83
2018-07-15T21:32:53.041Z,6.90
2018-07-15T21:35:56.487Z,5.57
2018-07-15T21:39:00.012Z,6.37
2018-07-15T21:42:03.704Z,5.83
2018-07-15T21:45:07.417Z,7.10
2018-07-15T21:48:11.274Z,6.77
2018-07-15T21:51:14.868Z,6.00
2018-07-15T21:54:18.318Z,5.37
2018-07-15T21:57:21.877Z,4.87
2018-07-15T22:00:26.056Z,7.00
2018-07-15T22:03:29.658Z,5.20
2018-07-15T22:06:45.537Z,5.53
2018-07-15T22:10:00.794Z,4.60
2018-07-15T22:13:04.427Z,5.27
2018-07-15T22:16:08.060Z,4.70
2018-07-15T22:19:11.702Z,5.60
2018-07-15T22:22:15.830Z,5.20
2018-07-15T22:25:19.447Z,4.93
2018-07-15T22:28:23.083Z,5.30
2018-07-15T22:31:26.930Z,4.67
2018-07-15T22:34:30.991Z,4.93
2018-07-15T22:37:34.583Z,5.03
2018-07-15T22:40:38.081Z,5.07
2018-07-15T22:43:41.421Z,9.73
2018-07-15T22:46:44.983Z,4.97
2018-07-15T22:49:48.515Z,5.50
2018-07-15T22:52:52.055Z,5.10
2018-07-15T22:55:55.727Z,4.73
2018-07-15T22:58:59.374Z,4.97
2018-07-15T23:02:02.997Z,5.30
2018-07-15T23:05:46.317Z,5.40
2018-07-15T23:08:49.649Z,5.33
2018-07-15T23:11:53.191Z,5.57
2018-07-15T23:14:56.811Z,5.67
2018-07-15T23:18:00.703Z,5.87
2018-07-15T23:21:04.635Z,5.87
2018-07-15T23:24:08.139Z,5.27
2018-07-15T23:27:11.503Z,6.20
2018-07-15T23:30:15.167Z,6.57
2018-07-15T23:33:18.775Z,6.57
2018-07-15T23:36:22.403Z,6.80
2018-07-15T23:39:26.023Z,7.03
2018-07-15T23:42:29.664Z,6.33
2018-07-15T23:45:34.118Z,6.87
2018-07-15T23:48:37.758Z,7.23
2018-07-15T23:51:41.363Z,7.23
2018-07-15T23:54:44.989Z,7.67
2018-07-15T23:57:48.831Z,7.90
